Tubul — A8VP8 — position and weather

sailwx.info

Track history (hours):
 
Tides and Currents Weather Stations Pressure Air Temp Water Temp Dewpoint Dewpoint Depression Visibility Wind Speed Wind Dir Waves Ship Positions

Tubul

Last reported at 2017-Feb-23 05:20 UTC. Time now 2017-Mar-01 17:48 UTC.
Position S 34°54' W 056°12'.

Length 300 m; draft 9.8 m.

Type: Ship (hazmat cat A). MMSI: 636014647.

Date/timePositionNaut miles runAvg speedWind from/ knotsBaromVisibWave heightAir tempDewpointWater temp
2017-Feb-23 05:20S 34°54' W 056°12'2 0.6
2017-Feb-23 02:33S 34°55' W 056°13'  
2017-Feb-20 16:06S 27°46' W 048°12'1017.7
2017-Feb-20 15:33S 27°36' W 048°08'3316.1
2017-Feb-20 13:30S 27°05' W 048°18'53 1.6
2017-Feb-19 03:22S 26°12' W 048°12'1011.6
2017-Feb-19 02:31S 26°02' W 048°12'1411.6
2017-Feb-19 01:20S 25°48' W 048°10'810.7
2017-Feb-19 00:34S 25°41' W 048°15'1312.7
2017-Feb-18 23:31S 25°30' W 048°24'83 4.3
2017-Feb-18 04:12S 24°53' W 047°02'2112.7
2017-Feb-18 02:33S 24°38' W 046°46'1414.3
2017-Feb-18 01:33S 24°27' W 046°35'1414.1
2017-Feb-18 00:33S 24°15' W 046°28'1413.9
2017-Feb-17 23:34S 24°02' W 046°21'6 1.6
2017-Feb-17 20:05S 23°58' W 046°18'0 0.0
2017-Feb-17 15:11S 23°58' W 046°18'0 0.0
2017-Feb-16 17:27S 23°58' W 046°18'1 1.1
2017-Feb-16 16:33S 23°59' W 046°17'9 9.0
2017-Feb-16 15:33S 24°06' W 046°23'6 5.7
2017-Feb-16 14:33S 24°12' W 046°24'0 0.5
2017-Feb-16 13:33S 24°12' W 046°24'1 1.3
2017-Feb-16 12:33S 24°11' W 046°24'1 1.5
2017-Feb-16 11:33S 24°10' W 046°23'1 0.7
2017-Feb-16 10:33S 24°10' W 046°23'2 1.6
2017-Feb-16 09:33S 24°12' W 046°22'1 0.6
2017-Feb-16 08:33S 24°12' W 046°22'0 0.4
2017-Feb-16 07:33S 24°12' W 046°22'7 6.7
2017-Feb-16 06:33S 24°18' W 046°20'1212.1
2017-Feb-16 05:33S 24°24' W 046°08'1313.3
2017-Feb-16 04:33S 24°28' W 045°54'3013.7
2017-Feb-16 02:23S 24°37' W 045°23'2217.7
2017-Feb-16 01:10S 24°43' W 045°01'1117.3
2017-Feb-16 00:33S 24°45' W 044°49'2317.0
2017-Feb-15 23:12S 24°49' W 044°24'1117.0
2017-Feb-15 22:32S 24°52' W 044°12'  
Track history (hours):
 
Tides and Currents Weather Stations Pressure Air Temp Water Temp Dewpoint Dewpoint Depression Visibility Wind Speed Wind Dir Waves Ship Positions

Tubul

Last reported at 2017-Feb-23 05:20 UTC. Time now 2017-Mar-01 17:48 UTC.
Position S 34°54' W 056°12'.

Length 300 m; draft 9.8 m.

Type: Ship (hazmat cat A). MMSI: 636014647.

Date/timePositionNaut miles runAvg speedWind from/ knotsBaromVisibWave heightAir tempDewpointWater temp
2017-Feb-23 05:20S 34°54' W 056°12'2 0.6
2017-Feb-23 02:33S 34°55' W 056°13'  
2017-Feb-20 16:06S 27°46' W 048°12'1017.7
2017-Feb-20 15:33S 27°36' W 048°08'3316.1
2017-Feb-20 13:30S 27°05' W 048°18'53 1.6
2017-Feb-19 03:22S 26°12' W 048°12'1011.6
2017-Feb-19 02:31S 26°02' W 048°12'1411.6
2017-Feb-19 01:20S 25°48' W 048°10'810.7
2017-Feb-19 00:34S 25°41' W 048°15'1312.7
2017-Feb-18 23:31S 25°30' W 048°24'83 4.3
2017-Feb-18 04:12S 24°53' W 047°02'2112.7
2017-Feb-18 02:33S 24°38' W 046°46'1414.3
2017-Feb-18 01:33S 24°27' W 046°35'1414.1
2017-Feb-18 00:33S 24°15' W 046°28'1413.9
2017-Feb-17 23:34S 24°02' W 046°21'6 1.6
2017-Feb-17 20:05S 23°58' W 046°18'0 0.0
2017-Feb-17 15:11S 23°58' W 046°18'0 0.0
2017-Feb-16 17:27S 23°58' W 046°18'1 1.1
2017-Feb-16 16:33S 23°59' W 046°17'9 9.0
2017-Feb-16 15:33S 24°06' W 046°23'6 5.7
2017-Feb-16 14:33S 24°12' W 046°24'0 0.5
2017-Feb-16 13:33S 24°12' W 046°24'1 1.3
2017-Feb-16 12:33S 24°11' W 046°24'1 1.5
2017-Feb-16 11:33S 24°10' W 046°23'1 0.7
2017-Feb-16 10:33S 24°10' W 046°23'2 1.6
2017-Feb-16 09:33S 24°12' W 046°22'1 0.6
2017-Feb-16 08:33S 24°12' W 046°22'0 0.4
2017-Feb-16 07:33S 24°12' W 046°22'7 6.7
2017-Feb-16 06:33S 24°18' W 046°20'1212.1
2017-Feb-16 05:33S 24°24' W 046°08'1313.3
2017-Feb-16 04:33S 24°28' W 045°54'3013.7
2017-Feb-16 02:23S 24°37' W 045°23'2217.7
2017-Feb-16 01:10S 24°43' W 045°01'1117.3
2017-Feb-16 00:33S 24°45' W 044°49'2317.0
2017-Feb-15 23:12S 24°49' W 044°24'1117.0
2017-Feb-15 22:32S 24°52' W 044°12'  

Dump ship's entire track history